Time;durP1;ratioP1;P1;durP2;ratioP2;P2;SDS_P1;SDS_P2;PMS_P1;PMS_P2;Temp;Humidity;BMP_temperature;BMP_pressure;BME280_temperature;BME280_humidity;BME280_pressure;Samples;Min_cycle;Max_cycle;Signal;HPM_P1;HPM_P2
2024/01/13 00:01:56;;;;;;;13.03;7.43;;;1.90;99.90;;;;;;5048991;28;20273;-73
2024/01/13 00:04:23;;;;;;;12.67;7.60;;;1.90;99.90;;;;;;5049262;28;20323;-73
2024/01/13 00:06:50;;;;;;;15.87;8.10;;;1.90;99.90;;;;;;5049163;28;20247;-73
2024/01/13 00:09:17;;;;;;;17.20;8.40;;;1.90;99.90;;;;;;5049211;28;20323;-73
2024/01/13 00:11:43;;;;;;;24.53;8.53;;;1.90;99.90;;;;;;5049248;28;20244;-73
2024/01/13 00:14:10;;;;;;;17.10;7.77;;;1.90;99.90;;;;;;5048858;28;20760;-73
2024/01/13 00:16:37;;;;;;;14.23;7.50;;;2.00;99.90;;;;;;5032173;28;20644;-74
2024/01/13 00:19:06;;;;;;;16.93;8.00;;;2.00;99.90;;;;;;5043636;28;20692;-74
2024/01/13 00:21:33;;;;;;;15.27;7.87;;;2.00;99.90;;;;;;5049003;28;20200;-73
2024/01/13 00:23:59;;;;;;;13.93;7.47;;;2.00;99.90;;;;;;5048909;28;20246;-74
2024/01/13 00:26:27;;;;;;;14.07;7.20;;;2.00;99.90;;;;;;5049038;28;20291;-73
2024/01/13 00:28:54;;;;;;;20.07;7.50;;;2.00;99.90;;;;;;5048161;28;20228;-73
2024/01/13 00:31:21;;;;;;;13.13;7.00;;;2.00;99.90;;;;;;5048349;28;20691;-73
2024/01/13 00:33:48;;;;;;;12.90;7.00;;;2.00;99.90;;;;;;5049024;28;20290;-73
2024/01/13 00:36:16;;;;;;;17.90;7.77;;;2.00;99.90;;;;;;5048624;28;20664;-73
2024/01/13 00:38:43;;;;;;;16.27;7.20;;;2.00;99.90;;;;;;5049751;28;20292;-73
2024/01/13 00:41:10;;;;;;;13.53;6.53;;;2.00;99.90;;;;;;5048528;28;20308;-73
2024/01/13 00:43:38;;;;;;;14.57;7.60;;;2.00;99.90;;;;;;5042777;28;20718;-73
2024/01/13 00:46:05;;;;;;;12.20;6.60;;;2.10;99.90;;;;;;5044985;28;20300;-73
2024/01/13 00:48:34;;;;;;;14.13;7.00;;;2.00;99.90;;;;;;5035884;28;20958;-73
2024/01/13 00:51:01;;;;;;;14.50;6.80;;;2.00;99.90;;;;;;5048184;28;20682;-75
2024/01/13 00:53:29;;;;;;;15.53;6.70;;;2.10;99.90;;;;;;5048717;28;20262;-75
2024/01/13 00:55:56;;;;;;;13.73;6.23;;;2.10;99.90;;;;;;5048488;28;20214;-75
2024/01/13 00:58:23;;;;;;;17.13;6.90;;;2.10;99.90;;;;;;5048391;28;20298;-75
2024/01/13 01:00:50;;;;;;;10.63;5.33;;;2.10;99.90;;;;;;5048051;28;20291;-75
2024/01/13 01:03:16;;;;;;;12.83;6.03;;;2.10;99.90;;;;;;5048247;28;20342;-75
2024/01/13 01:05:43;;;;;;;10.07;5.50;;;2.20;99.90;;;;;;5048376;28;20293;-75
2024/01/13 01:08:10;;;;;;;16.70;5.97;;;2.20;99.90;;;;;;5048381;28;21138;-75
2024/01/13 01:10:38;;;;;;;10.77;5.17;;;2.10;99.90;;;;;;5048288;28;20290;-75
2024/01/13 01:13:05;;;;;;;12.13;4.80;;;2.10;99.90;;;;;;5048314;28;20223;-71
2024/01/13 01:15:32;;;;;;;10.40;4.47;;;2.10;99.90;;;;;;5048304;28;20708;-73
2024/01/13 01:17:59;;;;;;;8.40;4.77;;;2.20;99.90;;;;;;5047801;28;20204;-72
2024/01/13 01:20:26;;;;;;;12.87;4.40;;;2.20;99.90;;;;;;5047657;28;20270;-72
2024/01/13 01:22:53;;;;;;;8.57;4.40;;;2.10;99.90;;;;;;5047778;28;20298;-72
2024/01/13 01:25:20;;;;;;;10.63;4.93;;;2.10;99.90;;;;;;5048001;28;20236;-73
2024/01/13 01:27:49;;;;;;;11.20;4.37;;;2.20;99.90;;;;;;5047395;28;20197;-73
2024/01/13 01:30:15;;;;;;;12.70;4.53;;;2.20;99.90;;;;;;5047546;28;20267;-73
2024/01/13 01:32:42;;;;;;;7.07;3.87;;;2.20;99.90;;;;;;5047924;28;20219;-72
2024/01/13 01:35:09;;;;;;;11.00;4.40;;;2.20;99.90;;;;;;5047012;28;20246;-72
2024/01/13 01:37:36;;;;;;;6.40;4.00;;;2.20;99.90;;;;;;5046932;28;20303;-72
2024/01/13 01:40:04;;;;;;;7.93;4.20;;;2.20;99.90;;;;;;5046882;28;20295;-72
2024/01/13 01:42:31;;;;;;;7.17;3.67;;;2.20;99.90;;;;;;5046805;28;20212;-72
2024/01/13 01:44:59;;;;;;;9.93;4.53;;;2.20;99.90;;;;;;5045876;28;20208;-72
2024/01/13 01:47:28;;;;;;;9.17;4.87;;;2.20;99.90;;;;;;5046289;28;20216;-72
2024/01/13 01:49:55;;;;;;;7.00;4.00;;;2.10;99.90;;;;;;5027643;28;20236;-72
2024/01/13 01:52:22;;;;;;;8.67;4.43;;;2.30;99.90;;;;;;5027646;28;20299;-72
2024/01/13 01:54:49;;;;;;;8.30;5.00;;;2.30;99.90;;;;;;5028677;28;20242;-72
2024/01/13 01:57:16;;;;;;;7.50;4.47;;;2.20;99.90;;;;;;5047194;28;20691;-72
2024/01/13 01:59:43;;;;;;;10.10;4.57;;;2.30;99.90;;;;;;5047225;28;20291;-73
2024/01/13 02:02:12;;;;;;;5.03;4.00;;;2.30;99.90;;;;;;5046783;28;20795;-72
2024/01/13 02:04:39;;;;;;;7.37;3.90;;;2.20;99.90;;;;;;5047404;28;20267;-71
2024/01/13 02:07:07;;;;;;;7.77;4.03;;;2.30;99.90;;;;;;5047557;28;20243;-72
2024/01/13 02:09:34;;;;;;;6.10;4.00;;;2.30;99.90;;;;;;5047457;28;20224;-72
2024/01/13 02:12:02;;;;;;;7.57;3.90;;;2.30;99.90;;;;;;5046988;28;20300;-72
2024/01/13 02:14:29;;;;;;;9.97;4.13;;;2.30;99.90;;;;;;5046866;28;20204;-72
2024/01/13 02:16:57;;;;;;;7.77;4.17;;;2.30;99.90;;;;;;5046245;28;20212;-72
2024/01/13 02:19:31;;;;;;;6.57;3.80;;;2.30;99.90;;;;;;5047143;28;20243;-72
2024/01/13 02:22:00;;;;;;;7.63;3.80;;;2.30;99.90;;;;;;5046829;28;20193;-72
2024/01/13 02:24:27;;;;;;;6.30;4.00;;;2.30;99.90;;;;;;5046716;28;20239;-72
2024/01/13 02:26:53;;;;;;;6.40;3.93;;;2.30;99.90;;;;;;5046911;28;20299;-72
2024/01/13 02:29:20;;;;;;;5.10;3.70;;;2.30;99.90;;;;;;5046866;28;20242;-72
2024/01/13 02:31:47;;;;;;;10.53;4.63;;;2.30;99.90;;;;;;5046703;28;20291;-72
2024/01/13 02:34:14;;;;;;;8.17;4.30;;;2.30;99.90;;;;;;5046971;28;20206;-72
2024/01/13 02:36:41;;;;;;;7.00;4.30;;;2.30;99.90;;;;;;5046789;28;20234;-72
2024/01/13 02:39:09;;;;;;;7.93;4.23;;;2.30;99.90;;;;;;5046189;28;20644;-72
2024/01/13 02:41:36;;;;;;;8.27;4.30;;;2.30;99.90;;;;;;5046978;28;20208;-72
2024/01/13 02:44:03;;;;;;;6.47;3.97;;;2.30;99.90;;;;;;5046408;28;20218;-72
2024/01/13 02:46:29;;;;;;;8.60;4.37;;;2.30;99.90;;;;;;5046306;28;20239;-72
2024/01/13 02:48:59;;;;;;;9.30;4.60;;;2.30;99.90;;;;;;5046270;28;20392;-72
2024/01/13 02:51:27;;;;;;;9.40;4.47;;;2.30;99.90;;;;;;5046494;28;20750;-72
2024/01/13 02:53:54;;;;;;;5.77;4.20;;;2.20;99.90;;;;;;5046408;28;20215;-72
2024/01/13 02:56:23;;;;;;;8.27;4.47;;;2.30;99.90;;;;;;5046893;28;20216;-71
2024/01/13 02:58:50;;;;;;;6.93;3.97;;;2.30;99.90;;;;;;5046335;28;20339;-72
2024/01/13 03:01:17;;;;;;;8.60;4.40;;;2.30;99.90;;;;;;5046370;28;20700;-71
2024/01/13 03:03:44;;;;;;;6.33;4.63;;;2.20;99.90;;;;;;5047779;28;20601;-72
2024/01/13 03:06:12;;;;;;;8.00;4.93;;;2.30;99.90;;;;;;5050413;28;20208;-71
2024/01/13 03:08:39;;;;;;;6.60;4.50;;;2.30;99.90;;;;;;5050645;28;20295;-72
2024/01/13 03:11:06;;;;;;;7.57;4.60;;;2.30;99.90;;;;;;5050470;28;20306;-72
2024/01/13 03:13:34;;;;;;;11.53;4.63;;;2.30;99.90;;;;;;5046211;28;20623;-71
2024/01/13 03:16:01;;;;;;;7.37;5.03;;;2.30;99.90;;;;;;5030377;28;20248;-71
2024/01/13 03:18:28;;;;;;;6.67;4.73;;;2.30;99.90;;;;;;5031944;28;20245;-71
2024/01/13 03:20:55;;;;;;;7.13;4.87;;;2.30;99.90;;;;;;5050352;28;20210;-71
2024/01/13 03:23:22;;;;;;;5.70;4.47;;;2.30;99.90;;;;;;5050217;28;20287;-72
2024/01/13 03:25:48;;;;;;;10.13;5.93;;;2.30;99.90;;;;;;5050183;28;20212;-72
2024/01/13 03:28:15;;;;;;;8.37;5.40;;;2.30;99.90;;;;;;5050139;28;20266;-72
2024/01/13 03:30:44;;;;;;;9.27;5.13;;;2.30;99.90;;;;;;5050281;28;20271;-71
2024/01/13 03:33:10;;;;;;;9.43;6.10;;;2.30;99.90;;;;;;5050047;28;20590;-72
2024/01/13 03:35:37;;;;;;;5.80;5.17;;;2.30;99.90;;;;;;5050266;28;20622;-72
2024/01/13 03:38:04;;;;;;;8.67;5.77;;;2.30;99.90;;;;;;5049517;28;20571;-71
2024/01/13 03:40:31;;;;;;;8.10;5.43;;;2.30;99.90;;;;;;5050223;28;20638;-72
2024/01/13 03:42:58;;;;;;;8.80;5.77;;;2.30;99.90;;;;;;5049634;28;20304;-73
2024/01/13 03:45:25;;;;;;;7.80;5.50;;;2.30;99.90;;;;;;5049955;28;20291;-72
2024/01/13 03:47:54;;;;;;;8.07;5.60;;;2.20;99.90;;;;;;5049932;28;20205;-73
2024/01/13 03:50:21;;;;;;;8.37;5.17;;;2.30;99.90;;;;;;5049674;28;20322;-73
2024/01/13 03:52:48;;;;;;;9.83;5.20;;;2.30;99.90;;;;;;5049314;28;20211;-72
2024/01/13 03:55:15;;;;;;;7.23;4.93;;;2.30;99.90;;;;;;5049895;28;20637;-73
2024/01/13 03:57:42;;;;;;;6.30;5.37;;;2.30;99.90;;;;;;5049208;28;20247;-73
2024/01/13 04:00:10;;;;;;;7.33;5.43;;;2.30;99.90;;;;;;5049338;28;20218;-73
2024/01/13 04:02:37;;;;;;;8.23;5.40;;;2.30;99.90;;;;;;5049273;28;20826;-73
2024/01/13 04:05:05;;;;;;;6.80;5.00;;;2.20;99.90;;;;;;5049092;28;20332;-72
2024/01/13 04:07:32;;;;;;;5.93;5.10;;;2.20;99.90;;;;;;5049524;28;20295;-72
2024/01/13 04:09:59;;;;;;;7.53;5.27;;;2.30;99.90;;;;;;5048875;28;20322;-73
2024/01/13 04:12:26;;;;;;;8.13;5.07;;;2.30;99.90;;;;;;5049410;28;20677;-72
2024/01/13 04:14:52;;;;;;;8.50;5.10;;;2.20;99.90;;;;;;5048322;28;20207;-72
2024/01/13 04:17:19;;;;;;;5.93;4.93;;;2.30;99.90;;;;;;5049436;28;20295;-72
2024/01/13 04:19:46;;;;;;;6.07;5.13;;;2.20;99.90;;;;;;5049336;28;20294;-71
2024/01/13 04:22:14;;;;;;;7.03;4.93;;;2.20;99.90;;;;;;5049083;28;20230;-73
2024/01/13 04:24:41;;;;;;;7.60;5.30;;;2.20;99.90;;;;;;5049088;28;20201;-73
2024/01/13 04:27:08;;;;;;;8.97;5.80;;;2.20;99.90;;;;;;5048822;28;20248;-73
2024/01/13 04:29:35;;;;;;;7.53;5.57;;;2.30;99.90;;;;;;5048854;28;20500;-74
2024/01/13 04:32:02;;;;;;;7.57;5.07;;;2.30;99.90;;;;;;5049121;28;20658;-73
2024/01/13 04:34:29;;;;;;;6.37;5.47;;;2.20;99.90;;;;;;5049217;28;20228;-73
2024/01/13 04:36:56;;;;;;;8.20;4.97;;;2.30;99.90;;;;;;5048010;28;20239;-72
2024/01/13 04:39:24;;;;;;;5.70;4.53;;;2.30;99.90;;;;;;5051679;28;20215;-72
2024/01/13 04:41:51;;;;;;;7.00;5.10;;;2.20;99.90;;;;;;5048044;28;20198;-72
2024/01/13 04:44:17;;;;;;;10.77;5.23;;;2.20;99.90;;;;;;5048146;28;20295;-72
2024/01/13 04:46:44;;;;;;;8.37;5.23;;;2.20;99.90;;;;;;5047661;28;20286;-72
2024/01/13 04:49:11;;;;;;;7.83;5.23;;;2.20;99.90;;;;;;5046075;28;20240;-72
2024/01/13 04:51:38;;;;;;;6.07;5.00;;;2.20;99.90;;;;;;5036826;28;20854;-73
2024/01/13 04:54:05;;;;;;;7.17;5.60;;;2.30;99.90;;;;;;5028650;28;20329;-74
2024/01/13 04:56:33;;;;;;;7.33;5.03;;;2.30;99.90;;;;;;5028800;28;20299;-73
2024/01/13 04:59:00;;;;;;;8.27;5.40;;;2.30;99.90;;;;;;5029135;28;20234;-73
2024/01/13 05:01:27;;;;;;;8.73;5.20;;;2.20;99.90;;;;;;5048522;28;20244;-73
2024/01/13 05:03:55;;;;;;;6.80;5.37;;;2.20;99.90;;;;;;5047842;28;20293;-74
2024/01/13 05:06:22;;;;;;;7.27;5.50;;;2.20;99.90;;;;;;5047973;28;20212;-73
2024/01/13 05:08:49;;;;;;;7.80;5.47;;;2.20;99.90;;;;;;5047864;28;20294;-74
2024/01/13 05:11:17;;;;;;;7.53;5.77;;;2.20;99.90;;;;;;5048113;28;20355;-73
2024/01/13 05:13:46;;;;;;;5.60;5.07;;;2.20;99.90;;;;;;5047345;28;20663;-72
2024/01/13 05:16:12;;;;;;;8.47;5.53;;;2.30;99.90;;;;;;5048232;28;20303;-72
2024/01/13 05:18:39;;;;;;;6.43;5.50;;;2.20;99.90;;;;;;5048193;28;20448;-72
2024/01/13 05:21:06;;;;;;;9.20;5.50;;;2.30;99.90;;;;;;5047923;28;20296;-72
2024/01/13 05:23:33;;;;;;;7.13;6.10;;;2.20;99.90;;;;;;5047927;28;20254;-72
2024/01/13 05:26:03;;;;;;;8.40;6.13;;;2.30;99.90;;;;;;5047214;28;20627;-72
2024/01/13 05:28:30;;;;;;;7.53;5.47;;;2.30;99.90;;;;;;5047538;28;20283;-72
2024/01/13 05:30:58;;;;;;;9.70;6.17;;;2.20;99.90;;;;;;5047790;28;20334;-72
2024/01/13 05:33:26;;;;;;;7.73;5.80;;;2.20;99.90;;;;;;5047553;28;20294;-72
2024/01/13 05:35:53;;;;;;;8.00;6.07;;;2.20;99.90;;;;;;5047170;28;20568;-71
2024/01/13 05:38:21;;;;;;;8.27;6.00;;;2.20;99.90;;;;;;5047576;28;20211;-72
2024/01/13 05:40:48;;;;;;;8.93;6.50;;;2.20;99.90;;;;;;5047718;28;20250;-72
2024/01/13 05:43:15;;;;;;;8.77;6.87;;;2.20;99.90;;;;;;5047224;28;20232;-72
2024/01/13 05:45:43;;;;;;;10.97;6.73;;;2.30;99.90;;;;;;5047572;28;20209;-72
2024/01/13 05:48:11;;;;;;;10.13;6.40;;;2.30;99.90;;;;;;5047486;28;20238;-72
2024/01/13 05:50:38;;;;;;;9.90;6.80;;;2.30;99.90;;;;;;5047626;28;20270;-72
2024/01/13 05:53:06;;;;;;;9.07;6.93;;;2.30;99.90;;;;;;5047360;28;20669;-72
2024/01/13 05:55:32;;;;;;;9.53;7.33;;;2.20;99.90;;;;;;5047582;28;20209;-72
2024/01/13 05:57:59;;;;;;;9.57;7.10;;;2.30;99.90;;;;;;5047060;28;20569;-72
2024/01/13 06:00:26;;;;;;;11.67;7.77;;;2.30;99.90;;;;;;5046831;28;20201;-72
2024/01/13 06:02:53;;;;;;;9.07;7.23;;;2.30;99.90;;;;;;5046660;28;20227;-72
2024/01/13 06:05:22;;;;;;;9.80;6.80;;;2.30;99.90;;;;;;5046915;28;20243;-72
2024/01/13 06:07:48;;;;;;;12.10;7.23;;;2.30;99.90;;;;;;5046935;28;20244;-71
2024/01/13 06:10:17;;;;;;;11.97;7.40;;;2.20;99.90;;;;;;5047222;28;20322;-73
2024/01/13 06:12:46;;;;;;;10.63;7.07;;;2.30;99.90;;;;;;5046609;28;20216;-73
2024/01/13 06:15:13;;;;;;;11.67;6.70;;;2.30;99.90;;;;;;5047049;28;20554;-73
2024/01/13 06:17:40;;;;;;;11.07;7.03;;;2.20;99.90;;;;;;5047087;28;20286;-73
2024/01/13 06:20:08;;;;;;;9.03;6.80;;;2.20;99.90;;;;;;5046761;28;20204;-72
2024/01/13 06:22:37;;;;;;;8.90;6.53;;;2.30;99.90;;;;;;5047121;28;20219;-72
2024/01/13 06:25:05;;;;;;;7.47;6.00;;;2.20;99.90;;;;;;5046685;28;20293;-74
2024/01/13 06:27:31;;;;;;;10.97;7.13;;;2.30;99.90;;;;;;5046661;28;20290;-74
2024/01/13 06:29:58;;;;;;;8.73;6.17;;;2.30;99.90;;;;;;5046425;28;20220;-74
2024/01/13 06:32:25;;;;;;;8.23;5.87;;;2.40;99.90;;;;;;5046746;28;20935;-73
2024/01/13 06:34:52;;;;;;;9.33;6.43;;;2.30;99.90;;;;;;5046921;28;20208;-73
2024/01/13 06:37:20;;;;;;;10.00;6.17;;;2.40;99.90;;;;;;5046318;28;20885;-73
2024/01/13 06:39:48;;;;;;;8.80;6.17;;;2.30;99.90;;;;;;5046360;28;20208;-73
2024/01/13 06:42:15;;;;;;;6.33;5.50;;;2.20;99.90;;;;;;5046563;28;20295;-73
2024/01/13 06:44:42;;;;;;;7.50;5.90;;;2.30;99.90;;;;;;5040624;28;20240;-73
2024/01/13 06:47:09;;;;;;;6.27;5.30;;;2.20;99.90;;;;;;5044472;28;20746;-73
2024/01/13 06:49:35;;;;;;;6.27;5.47;;;2.30;99.90;;;;;;5044615;28;20237;-72
2024/01/13 06:52:02;;;;;;;7.90;7.07;;;2.20;99.90;;;;;;5044672;28;20233;-73
2024/01/13 06:54:29;;;;;;;7.13;5.03;;;2.30;99.90;;;;;;5044475;28;20252;-73
2024/01/13 06:56:58;;;;;;;6.13;5.03;;;2.20;99.90;;;;;;5043891;28;20294;-73
2024/01/13 06:59:24;;;;;;;5.90;5.03;;;2.30;99.90;;;;;;5044242;28;20200;-73
2024/01/13 07:01:51;;;;;;;7.00;4.77;;;2.20;99.90;;;;;;5044545;28;20322;-73
2024/01/13 07:04:18;;;;;;;6.33;4.40;;;2.20;99.90;;;;;;5044612;28;20263;-73
2024/01/13 07:06:45;;;;;;;5.43;4.63;;;2.30;99.90;;;;;;5045030;28;20208;-72
2024/01/13 07:09:12;;;;;;;5.20;4.57;;;2.30;99.90;;;;;;5041709;28;20628;-73
2024/01/13 07:11:39;;;;;;;6.77;4.57;;;2.30;99.90;;;;;;5043960;28;20330;-73
2024/01/13 07:14:07;;;;;;;4.43;4.03;;;2.30;99.90;;;;;;5044052;28;20287;-72
2024/01/13 07:16:34;;;;;;;6.83;4.57;;;2.40;99.90;;;;;;5042023;28;20200;-72
2024/01/13 07:19:01;;;;;;;5.50;4.50;;;2.40;99.90;;;;;;5043466;28;20307;-72
2024/01/13 07:21:29;;;;;;;5.30;4.30;;;2.40;99.90;;;;;;5043446;28;20233;-74
2024/01/13 07:23:55;;;;;;;4.27;3.87;;;2.40;99.90;;;;;;5044545;28;20255;-73
2024/01/13 07:26:22;;;;;;;7.37;4.97;;;2.40;99.90;;;;;;5045839;28;20205;-73
2024/01/13 07:28:49;;;;;;;4.20;3.80;;;2.30;99.90;;;;;;5051730;28;20238;-73
2024/01/13 07:31:17;;;;;;;5.17;4.67;;;2.40;99.90;;;;;;5060478;28;20322;-73
2024/01/13 07:33:44;;;;;;;5.43;4.33;;;2.30;99.90;;;;;;5044109;28;20309;-73
2024/01/13 07:36:11;;;;;;;4.80;4.00;;;2.40;99.90;;;;;;5044641;28;20254;-73
2024/01/13 07:38:38;;;;;;;4.30;3.80;;;2.40;99.90;;;;;;5044877;28;20291;-73
2024/01/13 07:41:07;;;;;;;3.60;3.30;;;2.30;99.90;;;;;;5044403;28;20295;-73
2024/01/13 07:43:34;;;;;;;4.07;3.47;;;2.30;99.90;;;;;;5044804;28;20643;-73
2024/01/13 07:46:01;;;;;;;3.30;3.00;;;2.30;99.90;;;;;;5045912;28;20303;-73
2024/01/13 07:48:29;;;;;;;3.30;3.00;;;2.30;99.90;;;;;;5045984;28;20303;-72
2024/01/13 07:50:56;;;;;;;3.70;3.40;;;2.40;99.90;;;;;;5049039;28;20269;-73
2024/01/13 07:53:23;;;;;;;3.73;3.43;;;2.30;99.90;;;;;;5049345;28;20204;-73
2024/01/13 07:55:50;;;;;;;4.03;3.67;;;2.30;99.90;;;;;;5049739;28;20319;-73
2024/01/13 07:58:16;;;;;;;3.47;3.17;;;2.30;99.90;;;;;;5049379;28;20261;-73
2024/01/13 08:00:43;;;;;;;3.40;3.10;;;2.40;99.90;;;;;;5049347;28;20666;-73
2024/01/13 08:03:10;;;;;;;3.50;3.20;;;2.30;99.90;;;;;;5049397;28;20356;-74
2024/01/13 08:05:38;;;;;;;3.40;3.10;;;2.40;99.90;;;;;;5049591;28;20279;-73
2024/01/13 08:08:07;;;;;;;2.83;2.63;;;2.30;99.90;;;;;;5049246;28;20218;-73
2024/01/13 08:10:36;;;;;;;3.00;2.80;;;2.40;99.90;;;;;;5049505;28;20224;-73
2024/01/13 08:13:04;;;;;;;3.10;2.90;;;2.30;99.90;;;;;;5049119;28;20204;-73
2024/01/13 08:15:30;;;;;;;3.17;2.87;;;2.40;99.90;;;;;;5029545;28;20740;-73
2024/01/13 08:17:57;;;;;;;3.03;2.80;;;2.30;99.90;;;;;;5036793;28;20250;-73
2024/01/13 08:20:24;;;;;;;3.03;2.73;;;2.30;99.90;;;;;;5048945;28;20295;-73
2024/01/13 08:22:52;;;;;;;3.07;2.77;;;2.40;99.90;;;;;;5048797;28;20306;-73
2024/01/13 08:25:19;;;;;;;3.30;3.00;;;2.40;99.90;;;;;;5048804;28;20302;-73
2024/01/13 08:27:46;;;;;;;2.83;2.53;;;2.30;99.90;;;;;;5048414;28;20209;-73
2024/01/13 08:30:14;;;;;;;2.93;2.70;;;2.40;99.90;;;;;;5048577;28;20737;-73
2024/01/13 08:32:40;;;;;;;3.10;2.80;;;2.30;99.90;;;;;;5048711;28;20242;-73
2024/01/13 08:35:08;;;;;;;2.77;2.57;;;2.40;99.90;;;;;;5048778;28;20206;-73
2024/01/13 08:37:35;;;;;;;2.90;2.70;;;2.40;99.90;;;;;;5048608;28;20297;-73
2024/01/13 08:40:04;;;;;;;2.73;2.50;;;2.40;99.90;;;;;;5048985;28;20350;-73
2024/01/13 08:42:31;;;;;;;3.27;2.97;;;2.50;99.90;;;;;;5048287;28;20666;-73
2024/01/13 08:44:58;;;;;;;3.23;2.53;;;2.50;99.90;;;;;;5048576;28;20296;-73
2024/01/13 08:47:26;;;;;;;3.03;2.67;;;2.50;99.90;;;;;;5048793;28;20208;-73
2024/01/13 08:49:52;;;;;;;2.70;2.50;;;2.50;99.90;;;;;;5048555;28;20317;-73
2024/01/13 08:52:19;;;;;;;3.17;2.77;;;2.50;99.90;;;;;;5048744;28;20323;-73
2024/01/13 08:54:46;;;;;;;3.67;3.00;;;2.50;99.90;;;;;;5048620;28;20204;-73
2024/01/13 08:57:15;;;;;;;3.10;2.77;;;2.50;99.90;;;;;;5048408;28;20745;-73
2024/01/13 08:59:42;;;;;;;3.03;2.83;;;2.50;99.90;;;;;;5048237;28;20860;-73
2024/01/13 09:02:09;;;;;;;4.27;2.87;;;2.60;99.90;;;;;;5047474;28;20220;-73
2024/01/13 09:04:36;;;;;;;3.60;3.30;;;2.50;99.90;;;;;;5047962;28;20789;-73
2024/01/13 09:07:03;;;;;;;3.07;2.83;;;2.60;99.90;;;;;;5048014;28;20298;-73
2024/01/13 09:09:30;;;;;;;3.07;2.77;;;2.50;99.90;;;;;;5048639;28;20287;-74
2024/01/13 09:11:57;;;;;;;3.03;2.80;;;2.60;99.90;;;;;;5047937;28;20335;-74
2024/01/13 09:14:25;;;;;;;3.47;3.27;;;2.60;99.90;;;;;;5047963;28;20815;-73
2024/01/13 09:16:52;;;;;;;3.50;3.20;;;2.60;99.90;;;;;;5048176;28;20315;-73
2024/01/13 09:19:19;;;;;;;3.33;3.00;;;2.60;99.90;;;;;;5048165;28;20295;-73
2024/01/13 09:21:46;;;;;;;2.90;2.70;;;2.70;99.90;;;;;;5048007;28;20211;-73
2024/01/13 09:24:13;;;;;;;3.40;2.80;;;2.70;99.90;;;;;;5046353;28;20238;-72
2024/01/13 09:26:41;;;;;;;3.00;2.70;;;2.70;99.90;;;;;;5048114;28;20283;-73
2024/01/13 09:29:08;;;;;;;4.47;3.10;;;2.70;99.90;;;;;;5047647;28;20219;-73
2024/01/13 09:31:36;;;;;;;3.20;2.57;;;2.70;99.90;;;;;;5047399;28;20224;-73
2024/01/13 09:34:03;;;;;;;3.50;3.20;;;2.70;99.90;;;;;;5047775;28;20299;-73
2024/01/13 09:36:30;;;;;;;3.00;2.80;;;2.70;99.90;;;;;;5047785;28;20295;-73
2024/01/13 09:38:57;;;;;;;2.97;2.77;;;2.70;99.90;;;;;;5047704;28;20287;-73
2024/01/13 09:41:24;;;;;;;3.03;2.83;;;2.70;99.90;;;;;;5047839;28;20761;-74
2024/01/13 09:44:00;;;;;;;3.17;2.80;;;2.70;99.90;;;;;;5047432;28;20299;-73
2024/01/13 09:46:27;;;;;;;2.80;2.60;;;2.80;99.90;;;;;;5047554;28;20294;-73
2024/01/13 09:48:57;;;;;;;2.70;2.50;;;2.70;99.90;;;;;;5047293;28;20335;-73
2024/01/13 09:51:24;;;;;;;3.20;2.90;;;2.80;99.90;;;;;;5047417;28;20307;-73
2024/01/13 09:53:58;;;;;;;2.80;2.60;;;2.70;99.90;;;;;;5047327;28;20298;-74
2024/01/13 09:56:30;;;;;;;2.90;2.70;;;2.80;99.90;;;;;;5047325;28;20689;-73
2024/01/13 09:58:57;;;;;;;3.10;2.60;;;2.80;99.90;;;;;;5047209;28;20311;-73
2024/01/13 10:01:25;;;;;;;2.97;2.77;;;2.80;99.90;;;;;;5046991;28;20298;-73
2024/01/13 10:03:52;;;;;;;3.00;2.70;;;2.80;99.90;;;;;;5047053;28;20267;-73
2024/01/13 10:06:22;;;;;;;2.90;2.70;;;2.80;99.90;;;;;;5047238;28;20207;-73
2024/01/13 10:08:50;;;;;;;3.27;2.97;;;2.80;99.90;;;;;;5047474;28;20235;-72
2024/01/13 10:11:17;;;;;;;2.73;2.53;;;2.80;99.90;;;;;;5047044;28;20309;-72
2024/01/13 10:13:44;;;;;;;3.13;2.93;;;2.80;99.90;;;;;;5046693;28;20216;-72
2024/01/13 10:16:12;;;;;;;3.23;2.93;;;2.80;99.90;;;;;;5047130;28;20268;-72
2024/01/13 10:18:39;;;;;;;2.87;2.63;;;2.80;99.90;;;;;;5046750;28;20204;-72
2024/01/13 10:21:06;;;;;;;2.77;2.57;;;2.70;99.90;;;;;;5046868;28;20299;-72
2024/01/13 10:23:35;;;;;;;2.80;2.60;;;2.70;99.90;;;;;;5046925;28;20214;-72
2024/01/13 10:26:04;;;;;;;3.10;2.90;;;2.70;99.90;;;;;;5046919;28;20208;-72
2024/01/13 10:28:32;;;;;;;2.40;2.30;;;2.70;99.90;;;;;;5046737;28;20208;-72
2024/01/13 10:31:01;;;;;;;3.00;2.67;;;2.70;99.90;;;;;;5046426;28;20224;-72
2024/01/13 10:33:29;;;;;;;3.00;2.80;;;2.70;99.90;;;;;;5046772;28;20265;-72
2024/01/13 10:35:56;;;;;;;2.77;2.57;;;2.70;99.90;;;;;;5046626;28;20633;-74
2024/01/13 10:38:23;;;;;;;2.70;2.50;;;2.70;99.90;;;;;;5047140;28;20613;-73
2024/01/13 10:40:53;;;;;;;2.27;2.17;;;2.70;99.90;;;;;;5046591;28;20287;-73
2024/01/13 10:43:23;;;;;;;2.53;2.33;;;2.70;99.90;;;;;;5046123;28;20212;-73
2024/01/13 10:45:57;;;;;;;2.70;2.50;;;2.70;99.90;;;;;;5046207;28;20204;-73
2024/01/13 10:48:34;;;;;;;2.93;2.73;;;2.70;99.90;;;;;;5046749;28;20203;-74
2024/01/13 10:51:03;;;;;;;2.60;2.50;;;2.60;99.90;;;;;;5046778;28;20210;-73
2024/01/13 10:53:31;;;;;;;2.53;2.43;;;2.60;99.90;;;;;;5046357;28;20249;-73
2024/01/13 10:56:00;;;;;;;2.63;2.43;;;2.60;99.90;;;;;;5046603;28;20208;-73
2024/01/13 10:58:27;;;;;;;2.80;2.60;;;2.60;99.90;;;;;;5046380;28;20291;-73
2024/01/13 11:00:54;;;;;;;3.10;2.80;;;2.60;99.90;;;;;;5046456;28;20196;-73
2024/01/13 11:03:24;;;;;;;3.73;3.43;;;2.60;99.90;;;;;;5046123;28;20243;-73
2024/01/13 11:05:51;;;;;;;2.50;2.40;;;2.60;99.90;;;;;;5046527;28;20238;-73
2024/01/13 11:08:20;;;;;;;3.17;2.50;;;2.60;99.90;;;;;;5046275;28;20547;-73
2024/01/13 11:10:50;;;;;;;2.30;2.20;;;2.50;99.90;;;;;;5046105;28;20242;-73
2024/01/13 11:13:22;;;;;;;2.50;2.40;;;2.60;99.90;;;;;;5046061;28;20268;-73
2024/01/13 11:15:57;;;;;;;2.10;2.00;;;2.60;99.90;;;;;;5046129;28;20280;-73
2024/01/13 11:18:26;;;;;;;2.03;1.93;;;2.60;99.90;;;;;;5046138;28;20219;-73
2024/01/13 11:21:03;;;;;;;2.00;1.90;;;2.60;99.90;;;;;;5046541;28;20210;-73
2024/01/13 11:23:37;;;;;;;2.30;2.20;;;2.60;99.90;;;;;;5046151;28;20728;-73
2024/01/13 11:26:04;;;;;;;2.00;1.90;;;2.70;99.90;;;;;;5050019;28;20218;-73
2024/01/13 11:28:47;;;;;;;2.30;2.20;;;2.70;99.90;;;;;;5050222;28;20231;-72
2024/01/13 11:31:34;;;;;;;2.27;2.17;;;2.70;99.90;;;;;;5049891;28;20282;-73
2024/01/13 11:34:02;;;;;;;1.93;1.83;;;2.70;99.90;;;;;;5050119;28;20698;-73
2024/01/13 11:36:30;;;;;;;2.20;2.10;;;2.80;99.90;;;;;;5049701;28;20557;-73
2024/01/13 11:39:00;;;;;;;1.87;1.77;;;2.80;99.90;;;;;;5041422;28;20207;-73
2024/01/13 11:41:39;;;;;;;2.00;1.90;;;2.70;99.90;;;;;;5030404;28;20212;-73
2024/01/13 11:44:07;;;;;;;2.17;2.07;;;2.80;99.90;;;;;;5047810;28;20207;-73
2024/01/13 11:46:38;;;;;;;2.43;2.23;;;2.80;99.90;;;;;;5050253;28;20210;-73
2024/01/13 11:49:05;;;;;;;2.00;1.90;;;2.80;99.90;;;;;;5050155;28;20192;-73
2024/01/13 11:51:57;;;;;;;2.70;2.30;;;2.80;99.90;;;;;;5050168;28;20331;-73
2024/01/13 11:54:24;;;;;;;2.23;2.13;;;2.80;99.90;;;;;;5049956;28;20203;-73
2024/01/13 11:56:52;;;;;;;1.97;1.87;;;2.70;99.90;;;;;;5049829;28;20214;-73
2024/01/13 11:59:21;;;;;;;2.27;2.07;;;2.70;99.90;;;;;;5049821;28;20205;-73
2024/01/13 12:01:48;;;;;;;1.73;1.63;;;2.70;99.90;;;;;;5049734;28;20350;-73
2024/01/13 12:04:17;;;;;;;1.90;1.80;;;2.70;99.90;;;;;;5049365;28;20239;-73
2024/01/13 12:06:44;;;;;;;1.90;1.80;;;2.70;99.90;;;;;;5049277;28;20238;-73
2024/01/13 12:09:12;;;;;;;1.90;1.80;;;2.70;99.90;;;;;;5049264;28;20663;-73
2024/01/13 12:11:39;;;;;;;2.10;2.00;;;2.80;99.90;;;;;;5049387;28;20307;-73
2024/01/13 12:14:06;;;;;;;2.10;2.00;;;2.80;99.90;;;;;;5049188;28;20269;-73
2024/01/13 12:16:36;;;;;;;2.20;2.10;;;2.80;99.90;;;;;;5049079;28;20212;-73
2024/01/13 12:19:03;;;;;;;1.90;1.80;;;2.80;99.90;;;;;;5048655;28;20211;-73
2024/01/13 12:21:30;;;;;;;2.30;2.03;;;2.80;99.90;;;;;;5049170;28;20264;-73
2024/01/13 12:24:00;;;;;;;2.07;1.93;;;2.80;99.90;;;;;;5049345;28;20200;-73
2024/01/13 12:26:31;;;;;;;1.90;1.80;;;2.80;99.90;;;;;;5049060;28;20744;-73
2024/01/13 12:28:59;;;;;;;2.07;1.87;;;2.80;99.90;;;;;;5048576;28;20198;-73
2024/01/13 12:31:26;;;;;;;1.80;1.70;;;2.80;99.90;;;;;;5049195;28;20319;-73
2024/01/13 12:33:54;;;;;;;1.93;1.83;;;2.90;99.90;;;;;;5048672;28;20752;-73
2024/01/13 12:36:21;;;;;;;2.20;2.00;;;2.80;99.90;;;;;;5047473;28;20238;-73
2024/01/13 12:38:48;;;;;;;2.00;1.90;;;2.80;99.90;;;;;;5048828;28;20743;-73
2024/01/13 12:41:16;;;;;;;2.17;2.07;;;2.80;99.90;;;;;;5048909;28;20619;-73
2024/01/13 12:43:43;;;;;;;1.80;1.70;;;2.80;99.90;;;;;;5048641;28;20306;-73
2024/01/13 12:46:10;;;;;;;1.83;1.73;;;2.80;99.90;;;;;;5048794;28;20287;-73
2024/01/13 12:48:37;;;;;;;2.03;1.77;;;2.80;99.90;;;;;;5048706;28;20206;-73
2024/01/13 12:51:12;;;;;;;1.70;1.60;;;2.80;99.90;;;;;;5048401;28;20236;-73
2024/01/13 12:53:43;;;;;;;2.37;1.90;;;2.80;99.90;;;;;;5048589;28;20263;-73
2024/01/13 12:56:10;;;;;;;1.80;1.70;;;2.80;99.90;;;;;;5048565;28;20660;-73
2024/01/13 12:58:37;;;;;;;1.87;1.70;;;2.80;99.90;;;;;;5048613;28;20299;-73